Time;durP1;ratioP1;P1;durP2;ratioP2;P2;SDS_P1;SDS_P2;PMS_P1;PMS_P2;Temp;Humidity;BMP_temperature;BMP_pressure;BME280_temperature;BME280_humidity;BME280_pressure;Samples;Min_cycle;Max_cycle;Signal;HPM_P1;HPM_P2
2021/10/11 00:01:58;;;;;;;6.13;4.57;;;;;;;;;;5071516;28;20060;-74
2021/10/11 00:04:24;;;;;;;6.75;4.82;;;;;;;;;;5068930;28;20056;-75
2021/10/11 00:06:51;;;;;;;6.97;4.72;;;;;;;;;;5068723;28;20060;-74
2021/10/11 00:09:17;;;;;;;7.45;4.47;;;;;;;;;;5068022;28;20068;-74
2021/10/11 00:11:43;;;;;;;6.20;4.00;;;;;;;;;;5065779;28;20064;-74
2021/10/11 00:14:10;;;;;;;8.65;4.50;;;;;;;;;;5068017;28;20583;-76
2021/10/11 00:16:36;;;;;;;5.85;4.00;;;;;;;;;;5066824;28;20052;-74
2021/10/11 00:19:03;;;;;;;6.07;4.13;;;;;;;;;;5064073;28;20147;-74
2021/10/11 00:21:30;;;;;;;6.25;4.32;;;;;;;;;;5058351;28;20190;-75
2021/10/11 00:23:56;;;;;;;6.75;4.00;;;;;;;;;;5065805;28;20067;-74
2021/10/11 00:26:22;;;;;;;6.22;3.92;;;;;;;;;;5067361;28;20068;-76
2021/10/11 00:28:49;;;;;;;6.43;4.25;;;;;;;;;;5062479;28;20532;-75
2021/10/11 00:31:15;;;;;;;6.05;4.10;;;;;;;;;;5067292;28;20059;-74
2021/10/11 00:33:42;;;;;;;5.97;4.20;;;;;;;;;;5067481;28;24987;-74
2021/10/11 00:36:08;;;;;;;5.25;3.78;;;;;;;;;;5077072;28;20055;-75
2021/10/11 00:38:34;;;;;;;5.35;4.00;;;;;;;;;;5067096;28;20090;-74
2021/10/11 00:41:01;;;;;;;6.65;3.88;;;;;;;;;;5069363;28;20072;-75
2021/10/11 00:43:27;;;;;;;5.85;4.05;;;;;;;;;;5061556;28;20052;-74
2021/10/11 00:45:54;;;;;;;5.78;4.07;;;;;;;;;;5063150;28;20056;-73
2021/10/11 00:48:20;;;;;;;5.85;3.97;;;;;;;;;;5063324;28;20052;-73
2021/10/11 00:50:47;;;;;;;5.35;3.92;;;;;;;;;;5067290;28;20113;-74
2021/10/11 00:53:14;;;;;;;10.82;3.78;;;;;;;;;;5066716;28;20056;-74
2021/10/11 00:55:41;;;;;;;5.47;3.97;;;;;;;;;;5061003;28;20083;-75
2021/10/11 00:58:07;;;;;;;6.22;4.28;;;;;;;;;;5063473;28;20080;-74
2021/10/11 01:00:33;;;;;;;6.22;4.22;;;;;;;;;;5063056;28;20442;-75
2021/10/11 01:03:00;;;;;;;5.00;3.72;;;;;;;;;;5070315;28;20080;-75
2021/10/11 01:05:26;;;;;;;4.90;3.95;;;;;;;;;;5063266;28;20063;-74
2021/10/11 01:07:53;;;;;;;5.50;3.97;;;;;;;;;;5066543;28;20067;-75
2021/10/11 01:10:19;;;;;;;4.72;3.70;;;;;;;;;;5065692;28;20057;-75
2021/10/11 01:12:45;;;;;;;5.00;3.45;;;;;;;;;;5072174;28;20052;-74
2021/10/11 01:15:12;;;;;;;6.00;3.90;;;;;;;;;;5066789;28;20133;-74
2021/10/11 01:17:38;;;;;;;5.90;3.75;;;;;;;;;;5067348;28;20071;-75
2021/10/11 01:20:05;;;;;;;5.47;4.07;;;;;;;;;;5067071;28;20068;-74
2021/10/11 01:22:39;;;;;;;4.80;3.63;;;;;;;;;;5064866;28;20109;-75
2021/10/11 01:25:06;;;;;;;5.53;4.00;;;;;;;;;;5065334;28;20529;-75
2021/10/11 01:27:33;;;;;;;5.78;3.55;;;;;;;;;;5067341;28;20056;-74
2021/10/11 01:29:59;;;;;;;4.80;3.70;;;;;;;;;;5067268;28;20064;-74
2021/10/11 01:32:26;;;;;;;5.25;3.70;;;;;;;;;;5066035;28;20478;-74
2021/10/11 01:34:52;;;;;;;5.60;3.83;;;;;;;;;;5061668;28;20422;-75
2021/10/11 01:37:19;;;;;;;4.63;3.53;;;;;;;;;;5069044;28;20130;-75
2021/10/11 01:39:45;;;;;;;5.30;3.80;;;;;;;;;;5067416;28;20507;-75
2021/10/11 01:42:12;;;;;;;4.65;3.40;;;;;;;;;;5061891;28;20060;-75
2021/10/11 01:44:38;;;;;;;4.93;3.50;;;;;;;;;;5064840;28;20503;-75
2021/10/11 01:47:05;;;;;;;5.70;3.60;;;;;;;;;;5063133;28;20106;-75
2021/10/11 01:49:31;;;;;;;5.18;3.47;;;;;;;;;;5063772;28;20064;-75
2021/10/11 01:51:58;;;;;;;6.28;3.75;;;;;;;;;;5066189;28;20064;-74
2021/10/11 01:54:24;;;;;;;5.65;3.80;;;;;;;;;;5061872;28;20090;-76
2021/10/11 01:56:51;;;;;;;5.22;3.85;;;;;;;;;;5067517;28;20629;-75
2021/10/11 01:59:17;;;;;;;5.63;3.53;;;;;;;;;;5064434;28;20074;-74
2021/10/11 02:01:43;;;;;;;5.28;3.45;;;;;;;;;;5064688;28;20052;-75
2021/10/11 02:04:10;;;;;;;5.05;3.45;;;;;;;;;;5067449;28;20067;-74
2021/10/11 02:06:36;;;;;;;5.35;3.50;;;;;;;;;;5070879;28;20079;-75
2021/10/11 02:09:04;;;;;;;5.50;3.50;;;;;;;;;;5066072;28;20507;-74
2021/10/11 02:11:30;;;;;;;4.97;3.15;;;;;;;;;;5060073;28;20060;-75
2021/10/11 02:13:57;;;;;;;4.82;3.13;;;;;;;;;;5058736;28;20492;-74
2021/10/11 02:16:23;;;;;;;6.35;3.58;;;;;;;;;;5065957;28;20040;-75
2021/10/11 02:18:49;;;;;;;4.97;3.63;;;;;;;;;;5068878;28;20070;-74
2021/10/11 02:21:16;;;;;;;5.13;3.22;;;;;;;;;;5071305;28;20068;-75
2021/10/11 02:23:42;;;;;;;4.95;3.60;;;;;;;;;;5064677;28;20068;-74
2021/10/11 02:26:09;;;;;;;5.32;3.15;;;;;;;;;;5062736;28;20064;-74
2021/10/11 02:28:35;;;;;;;5.20;3.42;;;;;;;;;;5063543;28;20138;-74
2021/10/11 02:31:02;;;;;;;4.10;3.15;;;;;;;;;;5070165;28;20071;-74
2021/10/11 02:33:28;;;;;;;5.10;3.22;;;;;;;;;;5069444;28;20075;-75
2021/10/11 02:35:54;;;;;;;4.38;2.97;;;;;;;;;;5066560;28;20045;-75
2021/10/11 02:38:21;;;;;;;4.68;3.17;;;;;;;;;;5055341;28;20075;-75
2021/10/11 02:40:47;;;;;;;4.65;3.10;;;;;;;;;;5064192;28;20205;-74
2021/10/11 02:43:14;;;;;;;8.02;3.55;;;;;;;;;;5066070;28;20463;-74
2021/10/11 02:45:40;;;;;;;5.82;3.75;;;;;;;;;;5067538;28;20075;-74
2021/10/11 02:48:07;;;;;;;4.47;3.38;;;;;;;;;;5071221;28;20060;-75
2021/10/11 02:50:33;;;;;;;5.70;3.53;;;;;;;;;;5070521;28;20432;-74
2021/10/11 02:53:00;;;;;;;6.22;3.38;;;;;;;;;;5066832;28;20064;-74
2021/10/11 02:55:26;;;;;;;4.72;3.50;;;;;;;;;;5063216;28;20064;-74
2021/10/11 02:57:53;;;;;;;4.20;2.75;;;;;;;;;;5068204;28;20063;-75
2021/10/11 03:00:19;;;;;;;6.65;3.25;;;;;;;;;;5067462;28;20064;-75
2021/10/11 03:02:45;;;;;;;4.05;3.35;;;;;;;;;;5069260;28;20035;-75
2021/10/11 03:05:12;;;;;;;5.68;3.53;;;;;;;;;;5068537;28;20056;-75
2021/10/11 03:07:38;;;;;;;4.93;2.80;;;;;;;;;;5068476;28;20075;-75
2021/10/11 03:10:05;;;;;;;4.13;3.05;;;;;;;;;;5069405;28;20048;-75
2021/10/11 03:12:33;;;;;;;4.88;3.05;;;;;;;;;;5066177;28;20067;-75
2021/10/11 03:15:00;;;;;;;4.95;3.20;;;;;;;;;;5068921;28;20068;-75
2021/10/11 03:17:26;;;;;;;6.03;3.42;;;;;;;;;;5055397;28;20140;-77
2021/10/11 03:19:52;;;;;;;4.18;2.65;;;;;;;;;;5065736;28;20075;-77
2021/10/11 03:22:19;;;;;;;4.75;3.08;;;;;;;;;;5062213;28;20056;-77
2021/10/11 03:24:45;;;;;;;5.57;3.33;;;;;;;;;;5068235;28;20073;-77
2021/10/11 03:27:12;;;;;;;4.50;2.58;;;;;;;;;;5071274;28;20052;-78
2021/10/11 03:29:38;;;;;;;4.47;2.50;;;;;;;;;;5067265;28;20512;-77
2021/10/11 03:32:04;;;;;;;3.70;2.78;;;;;;;;;;5062168;28;20151;-78
2021/10/11 03:34:31;;;;;;;3.97;2.50;;;;;;;;;;5061060;28;20052;-76
2021/10/11 03:36:57;;;;;;;5.45;2.90;;;;;;;;;;5065179;28;20125;-76
2021/10/11 03:39:24;;;;;;;5.20;3.10;;;;;;;;;;5061369;28;20065;-77
2021/10/11 03:41:50;;;;;;;3.83;2.53;;;;;;;;;;5064497;28;20526;-78
2021/10/11 03:44:17;;;;;;;3.50;2.47;;;;;;;;;;5063943;28;20060;-77
2021/10/11 03:46:43;;;;;;;4.18;2.50;;;;;;;;;;5056185;28;20061;-77
2021/10/11 03:49:09;;;;;;;4.57;2.67;;;;;;;;;;5062906;28;20049;-77
2021/10/11 03:51:36;;;;;;;6.00;3.00;;;;;;;;;;5064085;28;20076;-78
2021/10/11 03:54:02;;;;;;;4.25;2.58;;;;;;;;;;5063199;28;20625;-77
2021/10/11 03:56:29;;;;;;;3.90;2.72;;;;;;;;;;5074279;28;20605;-77
2021/10/11 03:58:55;;;;;;;4.20;2.90;;;;;;;;;;5063909;28;20129;-78
2021/10/11 04:01:22;;;;;;;3.50;2.53;;;;;;;;;;5061567;28;20072;-77
2021/10/11 04:03:49;;;;;;;5.18;2.65;;;;;;;;;;5054874;28;20033;-78
2021/10/11 04:06:16;;;;;;;4.80;2.35;;;;;;;;;;5066488;28;20029;-77
2021/10/11 04:08:45;;;;;;;3.25;2.50;;;;;;;;;;5063697;28;20145;-77
2021/10/11 04:13:41;;;;;;;3.90;2.45;;;;;;;;;;5067776;28;20045;-78
2021/10/11 04:16:08;;;;;;;4.65;2.90;;;;;;;;;;5069821;28;20086;-78
2021/10/11 04:18:34;;;;;;;4.45;2.38;;;;;;;;;;5068699;28;20114;-77
2021/10/11 04:21:01;;;;;;;4.07;2.60;;;;;;;;;;5072444;28;20805;-78
2021/10/11 04:23:28;;;;;;;3.45;2.28;;;;;;;;;;5068163;28;20133;-78
2021/10/11 04:25:54;;;;;;;3.28;2.28;;;;;;;;;;5068375;28;20052;-78
2021/10/11 04:28:21;;;;;;;4.30;2.67;;;;;;;;;;5068563;28;20083;-78
2021/10/11 04:30:47;;;;;;;3.53;2.38;;;;;;;;;;5076869;28;20050;-77
2021/10/11 04:33:14;;;;;;;4.65;2.30;;;;;;;;;;5072310;28;20040;-77
2021/10/11 04:35:41;;;;;;;4.35;2.17;;;;;;;;;;5063778;28;20111;-76
2021/10/11 04:38:07;;;;;;;3.63;2.05;;;;;;;;;;5073241;28;20043;-75
2021/10/11 04:40:34;;;;;;;4.70;2.17;;;;;;;;;;5054243;28;20075;-76
2021/10/11 04:43:01;;;;;;;2.97;2.08;;;;;;;;;;5070865;28;20067;-76
2021/10/11 04:45:30;;;;;;;4.20;2.55;;;;;;;;;;5068844;28;20029;-77
2021/10/11 04:48:01;;;;;;;4.10;2.50;;;;;;;;;;5068607;28;20516;-77
2021/10/11 04:50:29;;;;;;;6.83;2.73;;;;;;;;;;5065369;28;20056;-77
2021/10/11 04:52:56;;;;;;;4.22;2.45;;;;;;;;;;5069878;28;20466;-77
2021/10/11 04:55:23;;;;;;;4.15;2.05;;;;;;;;;;5077203;28;20032;-78
2021/10/11 04:57:50;;;;;;;5.07;2.50;;;;;;;;;;5069570;28;21230;-77
2021/10/11 05:00:16;;;;;;;3.90;2.03;;;;;;;;;;5074780;28;20528;-77
2021/10/11 05:02:43;;;;;;;3.85;2.50;;;;;;;;;;5064027;28;20067;-78
2021/10/11 05:05:09;;;;;;;4.43;2.60;;;;;;;;;;5063219;28;20056;-76
2021/10/11 05:07:36;;;;;;;3.45;2.40;;;;;;;;;;5069436;28;20111;-77
2021/10/11 05:10:03;;;;;;;5.50;2.60;;;;;;;;;;5068365;28;20036;-76
2021/10/11 05:12:29;;;;;;;2.83;1.83;;;;;;;;;;5059201;28;20076;-77
2021/10/11 05:14:55;;;;;;;3.25;1.90;;;;;;;;;;5062432;28;20068;-77
2021/10/11 05:17:22;;;;;;;2.60;1.80;;;;;;;;;;5074131;28;20086;-77
2021/10/11 05:19:49;;;;;;;3.47;1.75;;;;;;;;;;5071229;28;20033;-78
2021/10/11 05:22:15;;;;;;;2.75;1.90;;;;;;;;;;5067482;28;20056;-77
2021/10/11 05:24:41;;;;;;;3.63;1.73;;;;;;;;;;5078509;28;20068;-77
2021/10/11 05:27:08;;;;;;;5.03;1.90;;;;;;;;;;5063064;28;20041;-77
2021/10/11 05:29:37;;;;;;;4.38;1.98;;;;;;;;;;5063818;28;20052;-77
2021/10/11 05:32:05;;;;;;;3.35;1.67;;;;;;;;;;5060783;28;20060;-80
2021/10/11 05:34:31;;;;;;;3.97;1.73;;;;;;;;;;5068501;28;20049;-78
2021/10/11 05:37:01;;;;;;;6.93;1.80;;;;;;;;;;5070368;28;20553;-78
2021/10/11 05:39:27;;;;;;;2.88;1.48;;;;;;;;;;5068437;28;20098;-79
2021/10/11 05:41:53;;;;;;;5.80;2.30;;;;;;;;;;5067202;28;20072;-77
2021/10/11 05:44:20;;;;;;;3.97;1.92;;;;;;;;;;5066067;28;20040;-78
2021/10/11 05:46:48;;;;;;;7.15;2.38;;;;;;;;;;5066568;28;20048;-78
2021/10/11 05:49:14;;;;;;;4.95;1.90;;;;;;;;;;5064640;28;20060;-78
2021/10/11 05:51:41;;;;;;;4.60;1.98;;;;;;;;;;5057292;28;20037;-77
2021/10/11 05:54:07;;;;;;;4.07;1.60;;;;;;;;;;5060882;28;20059;-77
2021/10/11 05:56:34;;;;;;;4.78;1.90;;;;;;;;;;5065469;28;20029;-78
2021/10/11 05:59:02;;;;;;;4.95;1.80;;;;;;;;;;5064366;28;20087;-77
2021/10/11 06:01:28;;;;;;;4.70;1.80;;;;;;;;;;5066977;28;20061;-78
2021/10/11 06:03:55;;;;;;;5.00;1.88;;;;;;;;;;5068109;28;20507;-79
2021/10/11 06:06:21;;;;;;;3.33;1.48;;;;;;;;;;5066207;28;20121;-77
2021/10/11 06:08:47;;;;;;;3.70;1.60;;;;;;;;;;5066343;28;20132;-78
2021/10/11 06:11:20;;;;;;;5.50;2.05;;;;;;;;;;5067539;28;20068;-78
2021/10/11 06:13:46;;;;;;;4.70;1.63;;;;;;;;;;5061238;28;20068;-78
2021/10/11 06:16:13;;;;;;;4.13;1.40;;;;;;;;;;5062462;28;20113;-79
2021/10/11 06:18:40;;;;;;;2.65;1.58;;;;;;;;;;5065592;28;20461;-77
2021/10/11 06:21:07;;;;;;;4.13;1.60;;;;;;;;;;5068051;28;20449;-77
2021/10/11 06:23:33;;;;;;;4.03;1.52;;;;;;;;;;5064964;28;20456;-78
2021/10/11 06:26:00;;;;;;;4.38;1.50;;;;;;;;;;5066982;28;20448;-77
2021/10/11 06:28:27;;;;;;;2.67;1.50;;;;;;;;;;5062861;28;20072;-78
2021/10/11 06:30:54;;;;;;;3.95;1.63;;;;;;;;;;5068255;28;20048;-78
2021/10/11 06:33:21;;;;;;;5.63;1.42;;;;;;;;;;5046404;28;20044;-77
2021/10/11 06:35:48;;;;;;;2.65;1.30;;;;;;;;;;5075256;28;20052;-77
2021/10/11 06:38:15;;;;;;;2.35;1.42;;;;;;;;;;5068559;28;20064;-76
2021/10/11 06:40:45;;;;;;;3.35;1.10;;;;;;;;;;5072285;28;20040;-77
2021/10/11 06:43:12;;;;;;;4.60;1.60;;;;;;;;;;5070467;28;20048;-77
2021/10/11 06:45:39;;;;;;;4.93;1.35;;;;;;;;;;5063945;28;20060;-77
2021/10/11 06:48:05;;;;;;;2.63;1.30;;;;;;;;;;5066931;28;20045;-77
2021/10/11 06:50:32;;;;;;;5.22;1.30;;;;;;;;;;5064132;28;20561;-77
2021/10/11 06:52:58;;;;;;;4.15;1.40;;;;;;;;;;5069462;28;20498;-77
2021/10/11 06:55:24;;;;;;;3.75;1.30;;;;;;;;;;5057847;28;20040;-78
2021/10/11 06:57:51;;;;;;;3.95;1.50;;;;;;;;;;5066741;28;20055;-77
2021/10/11 07:00:17;;;;;;;2.85;1.02;;;;;;;;;;5062318;28;20067;-77
2021/10/11 07:02:44;;;;;;;3.63;1.33;;;;;;;;;;5060084;28;20121;-77
2021/10/11 07:05:10;;;;;;;3.80;1.33;;;;;;;;;;5065393;28;20102;-77
2021/10/11 07:07:41;;;;;;;3.33;1.05;;;;;;;;;;5065643;28;20056;-77
2021/10/11 07:10:08;;;;;;;3.20;1.25;;;;;;;;;;5069381;28;20048;-77
2021/10/11 07:12:34;;;;;;;3.55;1.38;;;;;;;;;;5069927;28;20078;-77
2021/10/11 07:15:01;;;;;;;3.83;1.30;;;;;;;;;;5071508;28;20064;-77
2021/10/11 07:17:27;;;;;;;2.35;1.10;;;;;;;;;;5070654;28;20053;-75
2021/10/11 07:19:54;;;;;;;2.55;1.10;;;;;;;;;;5073511;28;20044;-76
2021/10/11 07:22:20;;;;;;;2.88;1.45;;;;;;;;;;5068316;28;20052;-76
2021/10/11 07:24:47;;;;;;;2.88;1.05;;;;;;;;;;5065694;28;20524;-77
2021/10/11 07:27:14;;;;;;;2.58;1.20;;;;;;;;;;5068700;28;20436;-77
2021/10/11 07:29:40;;;;;;;2.35;1.17;;;;;;;;;;5066147;28;20080;-77
2021/10/11 07:32:08;;;;;;;2.42;1.05;;;;;;;;;;5070201;28;20064;-77
2021/10/11 07:34:34;;;;;;;3.88;1.30;;;;;;;;;;5066007;28;20067;-77
2021/10/11 07:37:01;;;;;;;2.67;1.00;;;;;;;;;;5071553;28;20048;-77
2021/10/11 07:39:28;;;;;;;3.95;1.20;;;;;;;;;;5068836;28;20056;-77
2021/10/11 07:41:54;;;;;;;1.50;0.70;;;;;;;;;;5071350;28;20052;-76
2021/10/11 07:44:20;;;;;;;1.77;1.00;;;;;;;;;;5070055;28;20056;-77
2021/10/11 07:46:53;;;;;;;3.65;1.25;;;;;;;;;;5066811;28;20048;-76
2021/10/11 07:49:20;;;;;;;2.65;1.10;;;;;;;;;;5071155;28;20036;-76
2021/10/11 07:51:46;;;;;;;1.83;0.80;;;;;;;;;;5071513;28;20487;-76
2021/10/11 07:54:16;;;;;;;2.13;0.88;;;;;;;;;;5069689;28;20060;-76
2021/10/11 07:56:43;;;;;;;3.83;1.33;;;;;;;;;;5070062;28;20077;-76
2021/10/11 07:59:09;;;;;;;2.75;1.15;;;;;;;;;;5071814;28;20445;-77
2021/10/11 08:01:36;;;;;;;2.78;1.10;;;;;;;;;;5067284;28;20057;-76
2021/10/11 08:04:03;;;;;;;3.17;0.88;;;;;;;;;;5073784;27;20032;-76
2021/10/11 08:06:30;;;;;;;2.20;0.80;;;;;;;;;;5063643;28;20041;-76
2021/10/11 08:08:57;;;;;;;1.85;0.90;;;;;;;;;;5076567;28;20070;-76
2021/10/11 08:11:23;;;;;;;1.15;0.75;;;;;;;;;;5068641;28;20467;-76
2021/10/11 08:13:49;;;;;;;1.80;0.80;;;;;;;;;;5064050;28;20530;-76
2021/10/11 08:16:16;;;;;;;1.95;0.80;;;;;;;;;;5068932;28;20064;-76
2021/10/11 08:18:42;;;;;;;2.47;1.00;;;;;;;;;;5068093;28;20029;-76
2021/10/11 08:21:09;;;;;;;2.53;1.02;;;;;;;;;;5070120;28;20121;-76
2021/10/11 08:23:39;;;;;;;2.90;1.27;;;;;;;;;;5067327;28;20084;-76
2021/10/11 08:26:08;;;;;;;3.15;0.70;;;;;;;;;;5062250;28;20032;-75
2021/10/11 08:28:35;;;;;;;3.38;0.90;;;;;;;;;;5063210;28;20068;-76
2021/10/11 08:31:02;;;;;;;3.17;1.15;;;;;;;;;;5068126;28;20052;-76
2021/10/11 08:33:29;;;;;;;2.25;0.90;;;;;;;;;;5070263;28;20068;-76
2021/10/11 08:35:55;;;;;;;1.80;0.80;;;;;;;;;;5068900;28;20060;-76
2021/10/11 08:38:21;;;;;;;2.78;0.90;;;;;;;;;;5067230;28;20060;-76
2021/10/11 08:40:49;;;;;;;3.85;0.70;;;;;;;;;;5064087;28;20056;-74
2021/10/11 08:43:15;;;;;;;3.65;1.00;;;;;;;;;;5069015;28;20121;-77
2021/10/11 08:45:46;;;;;;;3.08;0.80;;;;;;;;;;5067486;28;20079;-76
2021/10/11 08:48:12;;;;;;;1.55;0.77;;;;;;;;;;5067438;28;20059;-76
2021/10/11 08:50:38;;;;;;;3.03;1.00;;;;;;;;;;5066140;28;20056;-76
2021/10/11 08:53:06;;;;;;;2.35;0.82;;;;;;;;;;5070197;28;20071;-76
2021/10/11 08:55:33;;;;;;;2.05;0.80;;;;;;;;;;5065398;28;20040;-76
2021/10/11 08:58:03;;;;;;;1.50;0.60;;;;;;;;;;5066393;28;20068;-76
2021/10/11 09:00:34;;;;;;;2.53;0.70;;;;;;;;;;5064298;28;20093;-78
2021/10/11 09:03:01;;;;;;;1.55;0.77;;;;;;;;;;5064700;28;20040;-77
2021/10/11 09:05:32;;;;;;;3.33;0.82;;;;;;;;;;5062260;28;20061;-77
2021/10/11 09:07:59;;;;;;;1.90;0.60;;;;;;;;;;5066275;28;20484;-77
2021/10/11 09:10:26;;;;;;;3.30;0.85;;;;;;;;;;5066998;28;20062;-77
2021/10/11 09:12:53;;;;;;;3.08;1.00;;;;;;;;;;5069104;28;20071;-77
2021/10/11 09:15:19;;;;;;;2.10;0.70;;;;;;;;;;5063368;28;20071;-77
2021/10/11 09:17:54;;;;;;;1.73;0.88;;;;;;;;;;5064802;28;20032;-77
2021/10/11 09:20:25;;;;;;;1.67;0.85;;;;;;;;;;5073875;28;20488;-77
2021/10/11 09:22:52;;;;;;;3.70;0.80;;;;;;;;;;5067066;28;21442;-77
2021/10/11 09:25:20;;;;;;;1.98;0.82;;;;;;;;;;5067800;28;20487;-76
2021/10/11 09:27:46;;;;;;;1.55;0.68;;;;;;;;;;5062706;28;20040;-77
2021/10/11 09:30:14;;;;;;;4.05;0.70;;;;;;;;;;5068085;28;20040;-77
2021/10/11 09:32:40;;;;;;;3.17;0.60;;;;;;;;;;5064444;28;20121;-76
2021/10/11 09:35:08;;;;;;;2.28;0.70;;;;;;;;;;5068883;28;20445;-76
2021/10/11 09:37:38;;;;;;;2.17;0.77;;;;;;;;;;5066397;28;20055;-75
2021/10/11 09:40:05;;;;;;;1.98;0.70;;;;;;;;;;5078977;28;20063;-76
2021/10/11 09:42:32;;;;;;;2.42;0.90;;;;;;;;;;5075214;28;20093;-77
2021/10/11 09:44:58;;;;;;;1.60;0.75;;;;;;;;;;5069133;28;20588;-76
2021/10/11 09:47:37;;;;;;;3.20;0.90;;;;;;;;;;5068576;28;20064;-76
2021/10/11 09:50:13;;;;;;;1.60;0.80;;;;;;;;;;5065091;28;20114;-76
2021/10/11 09:52:41;;;;;;;2.03;0.77;;;;;;;;;;5066180;28;20217;-76
2021/10/11 09:55:09;;;;;;;2.97;0.68;;;;;;;;;;5068552;28;20036;-76
2021/10/11 09:57:35;;;;;;;3.13;0.60;;;;;;;;;;5065009;28;20029;-77
2021/10/11 10:00:04;;;;;;;1.85;0.70;;;;;;;;;;5065701;28;20028;-77
2021/10/11 10:02:31;;;;;;;1.38;0.65;;;;;;;;;;5065996;28;20114;-76
2021/10/11 10:04:58;;;;;;;2.83;0.77;;;;;;;;;;5067989;28;20112;-77
2021/10/11 10:07:27;;;;;;;1.63;0.52;;;;;;;;;;5067638;28;20067;-77
2021/10/11 10:09:55;;;;;;;1.60;0.70;;;;;;;;;;5072394;28;22516;-77
2021/10/11 10:12:21;;;;;;;2.25;0.68;;;;;;;;;;5067902;28;20601;-77
2021/10/11 10:14:59;;;;;;;1.25;0.45;;;;;;;;;;5066828;28;20033;-77
2021/10/11 10:17:29;;;;;;;3.05;0.95;;;;;;;;;;5066435;28;20117;-78
2021/10/11 10:20:04;;;;;;;1.98;0.82;;;;;;;;;;5066662;28;20025;-77
2021/10/11 10:22:30;;;;;;;2.83;0.65;;;;;;;;;;5067449;28;20036;-77
2021/10/11 10:25:10;;;;;;;2.55;0.60;;;;;;;;;;5066908;28;20478;-77
2021/10/11 10:27:38;;;;;;;1.80;0.90;;;;;;;;;;5065580;28;20515;-77
2021/10/11 10:30:21;;;;;;;2.05;0.70;;;;;;;;;;5068688;28;20548;-77
2021/10/11 10:33:05;;;;;;;1.50;0.60;;;;;;;;;;5059989;28;20121;-77
2021/10/11 10:35:38;;;;;;;2.67;0.65;;;;;;;;;;5059433;28;20108;-77
2021/10/11 10:38:14;;;;;;;2.38;0.65;;;;;;;;;;5067769;28;20455;-77
2021/10/11 10:40:41;;;;;;;2.08;1.13;;;;;;;;;;5071896;28;20044;-77
2021/10/11 10:43:09;;;;;;;2.25;0.70;;;;;;;;;;5071731;28;20079;-77
2021/10/11 10:45:36;;;;;;;1.10;0.50;;;;;;;;;;5070219;28;20102;-76
2021/10/11 10:48:04;;;;;;;2.97;0.60;;;;;;;;;;5070534;28;20036;-76
2021/10/11 10:50:32;;;;;;;2.25;0.77;;;;;;;;;;5065375;28;20060;-76
2021/10/11 10:53:00;;;;;;;1.50;0.60;;;;;;;;;;5069077;28;20118;-76
2021/10/11 10:55:27;;;;;;;2.15;0.90;;;;;;;;;;5059712;28;20522;-76
2021/10/11 10:57:54;;;;;;;1.88;0.50;;;;;;;;;;5072354;28;20396;-76
2021/10/11 11:00:21;;;;;;;1.58;0.50;;;;;;;;;;5068612;28;20052;-76
2021/10/11 11:02:51;;;;;;;2.50;0.57;;;;;;;;;;5070645;28;20048;-76
2021/10/11 11:05:19;;;;;;;2.00;0.70;;;;;;;;;;5065080;28;20113;-76
2021/10/11 11:07:47;;;;;;;2.53;0.50;;;;;;;;;;5067255;28;20630;-76
2021/10/11 11:10:15;;;;;;;1.85;0.60;;;;;;;;;;5061970;28;20051;-77
2021/10/11 11:12:56;;;;;;;2.95;0.50;;;;;;;;;;5068642;28;20056;-76
2021/10/11 11:15:30;;;;;;;2.93;0.60;;;;;;;;;;5061460;28;20467;-76
2021/10/11 11:17:58;;;;;;;2.38;0.63;;;;;;;;;;5070016;28;20064;-76
2021/10/11 11:20:26;;;;;;;1.60;0.60;;;;;;;;;;5069072;28;20056;-75
2021/10/11 11:22:53;;;;;;;2.42;0.70;;;;;;;;;;5066852;28;20384;-78
2021/10/11 11:25:27;;;;;;;0.98;0.50;;;;;;;;;;5069884;28;20444;-77
2021/10/11 11:27:55;;;;;;;2.45;0.88;;;;;;;;;;5066786;28;20036;-76
2021/10/11 11:30:21;;;;;;;1.98;0.85;;;;;;;;;;5067816;28;20029;-77
2021/10/11 11:32:52;;;;;;;2.58;0.60;;;;;;;;;;5067023;28;20065;-77
2021/10/11 11:35:20;;;;;;;2.35;0.60;;;;;;;;;;5070406;28;20083;-77
2021/10/11 11:37:48;;;;;;;1.83;0.70;;;;;;;;;;5066936;28;20086;-77
2021/10/11 11:40:17;;;;;;;2.40;0.60;;;;;;;;;;5067341;28;20072;-76
2021/10/11 11:42:44;;;;;;;2.58;0.60;;;;;;;;;;5062777;28;20060;-76
2021/10/11 11:45:11;;;;;;;2.13;0.85;;;;;;;;;;5068136;28;20056;-76
2021/10/11 11:47:37;;;;;;;1.67;0.40;;;;;;;;;;5066532;28;20484;-76
2021/10/11 11:50:08;;;;;;;1.88;0.60;;;;;;;;;;5061823;28;20135;-76
2021/10/11 11:52:35;;;;;;;2.45;0.80;;;;;;;;;;5066904;28;20064;-77
2021/10/11 11:55:01;;;;;;;2.08;0.85;;;;;;;;;;5061229;28;20125;-77
2021/10/11 11:57:40;;;;;;;1.50;0.50;;;;;;;;;;5067730;28;20476;-77
2021/10/11 12:00:06;;;;;;;3.08;0.63;;;;;;;;;;5058250;28;20549;-77
2021/10/11 12:02:36;;;;;;;1.30;0.50;;;;;;;;;;5064380;28;20488;-77
2021/10/11 12:05:02;;;;;;;2.45;0.68;;;;;;;;;;5068559;28;20036;-77
2021/10/11 12:07:29;;;;;;;2.15;0.60;;;;;;;;;;5067913;28;20052;-77
2021/10/11 12:09:55;;;;;;;1.63;0.55;;;;;;;;;;5069318;28;20033;-75
2021/10/11 12:12:31;;;;;;;3.58;0.60;;;;;;;;;;5070063;28;20032;-77
2021/10/11 12:14:58;;;;;;;2.22;0.70;;;;;;;;;;5064221;28;20272;-76
2021/10/11 12:17:31;;;;;;;2.53;0.60;;;;;;;;;;5066293;28;20106;-76
2021/10/11 12:19:59;;;;;;;3.08;0.70;;;;;;;;;;5069318;28;20048;-78
2021/10/11 12:22:32;;;;;;;2.47;0.73;;;;;;;;;;5070205;28;20040;-76
2021/10/11 12:24:59;;;;;;;2.20;0.73;;;;;;;;;;5065900;28;21290;-77
2021/10/11 12:27:25;;;;;;;0.90;0.47;;;;;;;;;;5067001;28;20055;-78
2021/10/11 12:29:54;;;;;;;1.20;0.50;;;;;;;;;;5067027;28;20457;-77
2021/10/11 12:32:28;;;;;;;2.10;0.70;;;;;;;;;;5068014;28;20067;-76
2021/10/11 12:34:56;;;;;;;1.92;0.60;;;;;;;;;;5066260;28;20484;-76
2021/10/11 12:37:23;;;;;;;1.67;0.57;;;;;;;;;;5070240;28;20060;-77
2021/10/11 12:39:52;;;;;;;1.90;0.63;;;;;;;;;;5068477;28;20062;-76
2021/10/11 12:42:25;;;;;;;1.63;0.60;;;;;;;;;;5067527;28;20075;-77
2021/10/11 12:44:58;;;;;;;1.80;0.73;;;;;;;;;;5067973;28;22204;-77
2021/10/11 12:47:34;;;;;;;1.65;0.63;;;;;;;;;;5070076;28;20052;-77
2021/10/11 12:50:07;;;;;;;1.50;0.60;;;;;;;;;;5066641;28;20338;-77
2021/10/11 12:52:38;;;;;;;1.42;0.50;;;;;;;;;;5066342;28;20109;-77
2021/10/11 12:55:05;;;;;;;1.77;0.50;;;;;;;;;;5064322;28;20056;-76
2021/10/11 12:57:32;;;;;;;2.35;0.75;;;;;;;;;;5064948;28;20052;-76
2021/10/11 12:59:58;;;;;;;1.95;0.60;;;;;;;;;;5069178;28;20490;-76
2021/10/11 13:02:25;;;;;;;2.22;0.65;;;;;;;;;;5071685;28;20048;-77
2021/10/11 13:04:51;;;;;;;1.92;0.50;;;;;;;;;;5062287;28;21300;-77
2021/10/11 13:07:21;;;;;;;1.80;0.60;;;;;;;;;;5067825;28;20064;-77
2021/10/11 13:09:47;;;;;;;1.48;0.60;;;;;;;;;;5067870;28;20068;-76
2021/10/11 13:12:13;;;;;;;1.65;0.52;;;;;;;;;;5069226;28;20071;-77
2021/10/11 13:14:40;;;;;;;1.88;0.50;;;;;;;;;;5067420;28;20064;-77
2021/10/11 13:17:06;;;;;;;3.25;0.73;;;;;;;;;;5070210;28;20060;-77
2021/10/11 13:19:33;;;;;;;1.77;0.70;;;;;;;;;;5069246;28;20499;-77
2021/10/11 13:21:59;;;;;;;1.85;0.63;;;;;;;;;;5063149;28;20067;-77
2021/10/11 13:24:25;;;;;;;1.35;0.40;;;;;;;;;;5061164;28;20080;-77
2021/10/11 13:26:52;;;;;;;1.45;0.40;;;;;;;;;;5064829;28;21155;-77
2021/10/11 13:29:47;;;;;;;1.52;0.70;;;;;;;;;;5070081;28;20086;-78
2021/10/11 13:32:53;;;;;;;2.38;0.63;;;;;;;;;;5066052;28;20535;-76
2021/10/11 13:41:22;;;;;;;3.10;0.77;;;;;;;;;;5063556;28;20589;-77
2021/10/11 16:03:07;;;;;;;1.67;0.52;;;;;;;;;;5072883;28;20106;-77
2021/10/11 16:05:33;;;;;;;1.88;0.70;;;;;;;;;;5065672;28;20626;-76
2021/10/11 16:08:00;;;;;;;1.85;0.50;;;;;;;;;;5069349;28;20105;-78
2021/10/11 16:10:26;;;;;;;2.90;0.70;;;;;;;;;;5068848;28;20037;-77
2021/10/11 16:12:52;;;;;;;2.35;0.70;;;;;;;;;;5065302;28;20395;-78
2021/10/11 16:15:19;;;;;;;5.18;0.57;;;;;;;;;;5070566;28;20113;-77
2021/10/11 16:17:45;;;;;;;2.97;0.68;;;;;;;;;;5076245;28;20033;-79
2021/10/11 16:20:12;;;;;;;2.20;0.68;;;;;;;;;;5072784;28;20040;-80
2021/10/11 16:22:39;;;;;;;14.95;1.35;;;;;;;;;;5073485;28;20037;-81
2021/10/11 16:25:06;;;;;;;4.93;0.63;;;;;;;;;;5068096;28;20098;-80
2021/10/11 16:27:33;;;;;;;2.42;0.80;;;;;;;;;;5062292;28;20040;-80
2021/10/11 16:29:59;;;;;;;3.05;0.80;;;;;;;;;;5060459;28;20070;-80
2021/10/11 16:32:26;;;;;;;1.35;0.47;;;;;;;;;;5062133;28;20064;-79
2021/10/11 16:34:52;;;;;;;2.47;0.80;;;;;;;;;;5061529;28;21306;-80
2021/10/11 16:37:18;;;;;;;3.53;0.98;;;;;;;;;;5067241;28;20461;-81
2021/10/11 16:39:45;;;;;;;2.90;0.90;;;;;;;;;;5065433;28;20135;-80
2021/10/11 16:42:11;;;;;;;3.13;0.93;;;;;;;;;;5064311;28;20063;-80
2021/10/11 16:44:38;;;;;;;1.88;0.80;;;;;;;;;;5062333;28;20084;-80
2021/10/11 16:47:04;;;;;;;2.58;0.85;;;;;;;;;;5063474;28;20072;-80
2021/10/11 16:49:31;;;;;;;3.13;0.80;;;;;;;;;;5064432;28;20053;-80
2021/10/11 16:51:57;;;;;;;2.75;0.90;;;;;;;;;;5071118;28;20052;-79
2021/10/11 16:54:23;;;;;;;2.25;0.70;;;;;;;;;;5071401;28;20064;-80
2021/10/11 16:56:50;;;;;;;2.33;0.70;;;;;;;;;;5059940;28;20082;-79
2021/10/11 16:59:16;;;;;;;1.77;0.50;;;;;;;;;;5057138;28;20071;-79
2021/10/11 17:01:43;;;;;;;2.45;0.70;;;;;;;;;;5063970;28;20063;-79
2021/10/11 17:04:09;;;;;;;2.55;0.80;;;;;;;;;;5063112;28;20033;-79
2021/10/11 17:06:36;;;;;;;1.90;0.75;;;;;;;;;;5054963;28;20044;-79
2021/10/11 17:09:03;;;;;;;2.00;0.65;;;;;;;;;;5063321;28;20067;-80
2021/10/11 17:11:30;;;;;;;1.60;0.63;;;;;;;;;;5058404;28;20056;-80
2021/10/11 17:13:59;;;;;;;2.45;0.95;;;;;;;;;;5061502;28;20057;-80